createdAt,value
2022-08-07T00:02:39.614Z,5.10
2022-08-07T00:05:01.311Z,5.10
2022-08-07T00:07:39.236Z,4.70
2022-08-07T00:10:26.034Z,5.70
2022-08-07T00:15:38.360Z,4.70
2022-08-07T00:18:24.351Z,5.00
2022-08-07T00:21:56.288Z,4.40
2022-08-07T00:23:58.747Z,4.60
2022-08-07T00:26:31.408Z,5.20
2022-08-07T00:29:14.245Z,5.10
2022-08-07T00:31:43.250Z,5.10
2022-08-07T00:34:11.311Z,5.40
2022-08-07T00:36:42.930Z,4.60
2022-08-07T00:39:12.886Z,5.00
2022-08-07T00:42:02.427Z,4.70
2022-08-07T00:44:35.116Z,4.20
2022-08-07T00:47:16.005Z,4.70
2022-08-07T00:50:20.850Z,4.90
2022-08-07T00:52:41.750Z,4.60
2022-08-07T00:55:17.469Z,4.60
2022-08-07T00:57:55.702Z,4.80
2022-08-07T01:00:23.686Z,5.20
2022-08-07T01:02:52.063Z,4.90
2022-08-07T01:07:38.177Z,4.40
2022-08-07T01:10:10.884Z,5.30
2022-08-07T01:12:54.042Z,5.40
2022-08-07T01:16:00.581Z,4.90
2022-08-07T01:18:17.698Z,5.00
2022-08-07T01:20:57.363Z,5.90
2022-08-07T01:23:36.353Z,5.40
2022-08-07T01:26:13.492Z,5.20
2022-08-07T01:28:48.424Z,5.50
2022-08-07T01:31:21.137Z,6.10
2022-08-07T01:33:56.310Z,5.80
2022-08-07T01:36:33.485Z,5.20
2022-08-07T01:39:10.104Z,5.20
2022-08-07T01:42:07.899Z,5.80
2022-08-07T01:44:30.650Z,5.90
2022-08-07T01:47:01.228Z,5.40
2022-08-07T01:49:43.691Z,5.40
2022-08-07T01:52:12.587Z,5.70
2022-08-07T01:54:43.114Z,5.90
2022-08-07T01:57:24.615Z,5.60
2022-08-07T02:00:13.884Z,6.20
2022-08-07T02:03:19.301Z,5.50
2022-08-07T02:05:47.943Z,6.40
2022-08-07T02:08:25.717Z,5.90
2022-08-07T02:10:57.976Z,6.40
2022-08-07T02:13:56.786Z,5.60
2022-08-07T02:16:19.921Z,5.80
2022-08-07T02:18:56.497Z,5.80
2022-08-07T02:21:25.077Z,6.00
2022-08-07T02:23:53.259Z,6.00
2022-08-07T02:26:34.360Z,6.50
2022-08-07T02:29:04.145Z,6.30
2022-08-07T02:31:32.727Z,6.20
2022-08-07T02:34:04.169Z,6.50
2022-08-07T02:36:42.186Z,7.00
2022-08-07T02:39:17.361Z,6.30
2022-08-07T02:42:03.211Z,6.30
2022-08-07T02:44:43.370Z,6.80
2022-08-07T02:47:19.776Z,7.50
2022-08-07T02:49:55.948Z,6.30
2022-08-07T02:53:03.256Z,6.20
2022-08-07T02:56:02.227Z,5.80
2022-08-07T02:58:21.854Z,5.60
2022-08-07T03:00:51.842Z,5.60
2022-08-07T03:03:22.604Z,6.40
2022-08-07T03:05:54.268Z,5.90
2022-08-07T03:08:27.040Z,6.50
2022-08-07T03:10:59.219Z,7.00
2022-08-07T03:13:38.712Z,5.80
2022-08-07T03:16:08.576Z,5.90
2022-08-07T03:18:38.488Z,6.80
2022-08-07T03:21:08.224Z,6.30
2022-08-07T03:24:20.998Z,6.10
2022-08-07T03:26:25.375Z,5.60
2022-08-07T03:28:54.943Z,7.10
2022-08-07T03:31:23.700Z,6.30
2022-08-07T03:34:00.980Z,6.60
2022-08-07T03:36:30.381Z,6.00
2022-08-07T03:39:05.478Z,6.20
2022-08-07T03:41:42.135Z,5.80
2022-08-07T03:44:15.633Z,7.00
2022-08-07T03:47:11.081Z,6.30
2022-08-07T03:49:36.868Z,6.30
2022-08-07T03:52:04.734Z,7.10
2022-08-07T03:54:35.624Z,7.70
2022-08-07T03:58:34.296Z,7.20
2022-08-07T04:00:10.590Z,6.50
2022-08-07T04:02:47.285Z,6.70
2022-08-07T04:05:28.629Z,6.50
2022-08-07T04:08:07.407Z,7.40
2022-08-07T04:10:42.361Z,7.70
2022-08-07T04:13:15.179Z,7.20
2022-08-07T04:15:43.455Z,6.50
2022-08-07T04:18:56.975Z,7.10
2022-08-07T04:21:02.098Z,7.60
2022-08-07T04:23:43.763Z,7.10
2022-08-07T04:26:21.883Z,7.50
2022-08-07T04:28:49.842Z,6.60
2022-08-07T04:31:20.262Z,7.60
2022-08-07T04:34:16.644Z,7.30
2022-08-07T04:36:49.473Z,7.90
2022-08-07T04:39:19.275Z,7.30
2022-08-07T04:41:54.042Z,7.80
2022-08-07T04:44:21.489Z,7.30
2022-08-07T04:47:08.698Z,7.40
2022-08-07T04:49:57.379Z,7.30
2022-08-07T04:52:51.253Z,7.60
2022-08-07T04:58:12.485Z,6.90
2022-08-07T04:58:47.537Z,6.60
2022-08-07T05:01:39.863Z,6.90
2022-08-07T05:04:18.090Z,6.70
2022-08-07T05:06:51.518Z,6.70
2022-08-07T05:09:45.973Z,7.20
2022-08-07T05:12:26.775Z,6.40
2022-08-07T05:15:21.652Z,6.70
2022-08-07T05:18:01.576Z,6.60
2022-08-07T05:20:40.169Z,6.70
2022-08-07T05:23:15.851Z,7.10
2022-08-07T05:26:10.549Z,6.60
2022-08-07T05:28:34.837Z,6.60
2022-08-07T05:31:02.153Z,6.70
2022-08-07T05:33:35.616Z,7.10
2022-08-07T05:36:05.785Z,6.80
2022-08-07T05:39:00.263Z,7.20
2022-08-07T05:41:22.145Z,6.80
2022-08-07T05:44:12.410Z,6.80
2022-08-07T05:46:43.703Z,6.70
2022-08-07T05:49:13.103Z,6.50
2022-08-07T05:51:46.429Z,6.60
2022-08-07T05:54:30.822Z,6.40
2022-08-07T05:56:59.888Z,6.40
2022-08-07T05:59:27.984Z,6.40
2022-08-07T06:02:00.282Z,6.50
2022-08-07T06:04:30.161Z,6.20
2022-08-07T06:07:03.403Z,6.30
2022-08-07T06:10:03.762Z,6.90
2022-08-07T06:12:20.892Z,6.40
2022-08-07T06:14:49.860Z,6.50
2022-08-07T06:17:19.663Z,6.80
2022-08-07T06:20:03.797Z,6.30
2022-08-07T06:22:38.943Z,5.80
2022-08-07T06:25:28.043Z,6.00
2022-08-07T06:28:04.599Z,6.40
2022-08-07T06:30:37.353Z,5.70
2022-08-07T06:33:16.097Z,5.80
2022-08-07T06:38:32.846Z,5.70
2022-08-07T06:41:04.270Z,5.70
2022-08-07T06:43:40.039Z,5.80
2022-08-07T06:46:12.647Z,5.60
2022-08-07T06:48:41.992Z,5.40
2022-08-07T06:51:24.551Z,4.80
2022-08-07T06:55:34.051Z,5.50
2022-08-07T06:56:51.623Z,5.30
2022-08-07T07:00:13.187Z,5.60
2022-08-07T07:02:48.106Z,6.00
2022-08-07T07:05:08.775Z,6.00
2022-08-07T07:07:59.771Z,6.20
2022-08-07T07:10:33.539Z,6.50
2022-08-07T07:13:15.198Z,6.10
2022-08-07T07:15:51.720Z,6.80
2022-08-07T07:18:46.838Z,6.00
2022-08-07T07:21:27.213Z,6.00
2022-08-07T07:24:12.687Z,6.10
2022-08-07T07:26:40.506Z,5.80
2022-08-07T07:29:56.835Z,5.00
2022-08-07T07:32:02.716Z,5.50
2022-08-07T07:34:31.917Z,6.60
2022-08-07T07:37:14.389Z,6.10
2022-08-07T07:39:54.835Z,5.80
2022-08-07T07:42:32.521Z,6.30
2022-08-07T07:45:04.953Z,5.80
2022-08-07T07:47:51.731Z,5.80
2022-08-07T07:50:34.011Z,6.00
2022-08-07T07:53:23.273Z,4.90
2022-08-07T07:57:07.260Z,4.90
2022-08-07T07:59:51.520Z,4.20
2022-08-07T08:02:35.316Z,4.30
2022-08-07T08:05:14.259Z,4.40
2022-08-07T08:07:59.657Z,4.80
2022-08-07T08:10:35.655Z,4.70
2022-08-07T08:13:10.577Z,4.70
2022-08-07T08:15:58.086Z,4.40
2022-08-07T08:18:52.266Z,4.30
2022-08-07T08:21:56.942Z,3.70
2022-08-07T08:25:04.509Z,4.40
2022-08-07T08:28:01.896Z,3.60
2022-08-07T08:30:42.494Z,3.50
2022-08-07T08:33:17.922Z,3.80
2022-08-07T08:36:18.955Z,3.70
2022-08-07T08:39:06.499Z,7.00
2022-08-07T08:41:58.519Z,3.60
2022-08-07T08:44:45.667Z,3.70
2022-08-07T08:47:54.888Z,4.10
2022-08-07T08:50:28.359Z,4.00
2022-08-07T08:53:30.557Z,4.00
2022-08-07T08:56:12.239Z,3.80
2022-08-07T08:59:02.331Z,3.80
2022-08-07T09:01:43.989Z,3.80
2022-08-07T09:04:28.773Z,4.20
2022-08-07T09:07:46.608Z,3.90
2022-08-07T09:10:27.984Z,3.80
2022-08-07T09:13:09.752Z,3.50
2022-08-07T09:16:21.700Z,3.90
2022-08-07T09:18:58.460Z,3.70
2022-08-07T09:21:33.831Z,3.90
2022-08-07T09:24:53.999Z,3.60
2022-08-07T09:27:54.735Z,4.20
2022-08-07T09:30:27.924Z,4.10
2022-08-07T09:33:05.342Z,4.10
2022-08-07T09:36:04.741Z,4.10
2022-08-07T09:38:50.270Z,4.60
2022-08-07T09:41:58.690Z,4.70
2022-08-07T09:47:50.042Z,4.80
2022-08-07T09:48:12.079Z,4.80
2022-08-07T09:51:25.899Z,4.30
2022-08-07T09:54:00.609Z,4.60
2022-08-07T09:56:58.900Z,4.90
2022-08-07T09:59:35.833Z,4.60
2022-08-07T10:02:35.470Z,4.30
2022-08-07T10:05:58.288Z,4.60
2022-08-07T10:08:23.497Z,4.60
2022-08-07T10:11:16.830Z,3.80
2022-08-07T10:14:02.468Z,3.50
2022-08-07T10:16:48.781Z,3.60
2022-08-07T10:20:03.098Z,3.30
2022-08-07T10:23:14.731Z,4.00
2022-08-07T10:27:01.968Z,3.50
2022-08-07T10:30:44.760Z,3.60
2022-08-07T10:34:05.532Z,3.90
2022-08-07T10:37:12.751Z,3.70
2022-08-07T10:43:08.309Z,3.60
2022-08-07T10:45:58.190Z,3.50
2022-08-07T10:48:39.666Z,4.10
2022-08-07T10:52:02.071Z,3.50
2022-08-07T10:54:29.506Z,4.20
2022-08-07T10:57:18.479Z,4.00
2022-08-07T11:00:36.157Z,3.70
2022-08-07T11:03:10.901Z,3.70
2022-08-07T11:06:33.409Z,2.90
2022-08-07T11:09:11.795Z,3.10
2022-08-07T11:12:11.792Z,2.90
2022-08-07T11:14:59.830Z,3.40
2022-08-07T11:17:54.167Z,2.50
2022-08-07T11:20:42.908Z,2.70
2022-08-07T11:23:38.618Z,2.70
2022-08-07T11:29:40.866Z,3.10
2022-08-07T11:32:36.243Z,2.50
2022-08-07T11:35:10.462Z,2.80
2022-08-07T11:37:58.232Z,2.70
2022-08-07T11:40:59.157Z,2.70
2022-08-07T11:43:54.449Z,2.70
2022-08-07T11:50:18.499Z,2.40
2022-08-07T11:52:55.443Z,2.50
2022-08-07T11:56:09.114Z,2.60
2022-08-07T11:58:50.262Z,2.40
2022-08-07T12:02:00.013Z,2.40
2022-08-07T12:05:01.055Z,2.50
2022-08-07T12:07:44.100Z,2.30
2022-08-07T12:10:48.540Z,2.40
2022-08-07T12:13:53.162Z,2.40
2022-08-07T12:16:30.662Z,2.50
2022-08-07T12:19:02.129Z,2.50
2022-08-07T12:22:39.046Z,2.70
2022-08-07T12:26:03.391Z,2.60
2022-08-07T12:28:45.581Z,2.60
2022-08-07T12:31:52.408Z,2.40
2022-08-07T12:34:23.038Z,2.50
2022-08-07T12:36:53.908Z,2.70
2022-08-07T12:39:44.843Z,2.50
2022-08-07T12:42:08.331Z,2.90
2022-08-07T12:44:36.131Z,2.50
2022-08-07T12:47:11.575Z,3.00
2022-08-07T12:50:06.550Z,4.50
2022-08-07T12:53:05.176Z,3.80
2022-08-07T12:56:02.857Z,3.60
2022-08-07T12:58:39.301Z,3.30
2022-08-07T13:01:16.627Z,3.50
2022-08-07T13:04:02.408Z,2.80
2022-08-07T13:06:54.517Z,2.80
2022-08-07T13:10:28.852Z,2.70
2022-08-07T13:12:33.467Z,2.70
2022-08-07T13:15:34.598Z,2.80
2022-08-07T13:18:25.811Z,3.00
2022-08-07T13:21:37.715Z,3.20
2022-08-07T13:25:54.192Z,2.80
2022-08-07T13:28:38.452Z,3.20
2022-08-07T13:31:13.043Z,3.30
2022-08-07T13:34:32.937Z,2.90
2022-08-07T13:37:10.800Z,3.00
2022-08-07T13:40:35.759Z,2.60
2022-08-07T13:42:54.955Z,2.80
2022-08-07T13:46:11.683Z,3.00
2022-08-07T13:48:27.511Z,3.40
2022-08-07T13:51:00.279Z,3.00
2022-08-07T13:54:00.598Z,3.00
2022-08-07T13:56:36.135Z,2.80
2022-08-07T13:59:12.355Z,3.20
2022-08-07T14:01:59.419Z,2.70
2022-08-07T14:04:36.174Z,2.70
2022-08-07T14:07:09.432Z,3.30
2022-08-07T14:10:12.128Z,2.90
2022-08-07T14:12:54.102Z,2.80
2022-08-07T14:15:35.100Z,2.90
2022-08-07T14:18:28.873Z,2.60
2022-08-07T14:22:01.088Z,2.80
2022-08-07T14:24:33.413Z,3.00
2022-08-07T14:28:09.662Z,2.70
2022-08-07T14:30:07.112Z,2.90
2022-08-07T14:33:05.752Z,3.10
2022-08-07T14:35:45.249Z,2.80
2022-08-07T14:38:26.368Z,2.80
2022-08-07T14:41:12.116Z,3.20
2022-08-07T14:43:56.983Z,3.70
2022-08-07T14:46:30.533Z,4.70
2022-08-07T14:49:56.086Z,6.40
2022-08-07T14:54:35.924Z,6.80
2022-08-07T14:57:24.896Z,4.30
2022-08-07T15:00:05.128Z,3.40
2022-08-07T15:02:36.847Z,5.70
2022-08-07T15:05:04.865Z,6.40
2022-08-07T15:07:52.144Z,6.70
2022-08-07T15:10:26.786Z,9.20
2022-08-07T15:13:20.439Z,15.70
2022-08-07T15:15:52.797Z,4.90
2022-08-07T15:21:58.759Z,16.90
2022-08-07T15:27:04.743Z,6.90
2022-08-07T15:32:39.953Z,16.00
2022-08-07T15:35:14.871Z,34.00
2022-08-07T15:38:18.174Z,9.70
2022-08-07T15:40:34.518Z,10.60
2022-08-07T15:43:53.373Z,10.50
2022-08-07T15:46:03.517Z,4.60
2022-08-07T15:48:37.500Z,19.80
2022-08-07T15:54:12.358Z,41.80
2022-08-07T15:56:41.838Z,45.90
2022-08-07T15:59:16.503Z,10.80
2022-08-07T16:02:02.423Z,19.80
2022-08-07T16:04:32.075Z,22.90
2022-08-07T16:07:05.172Z,48.90
2022-08-07T16:09:54.644Z,37.10
2022-08-07T16:13:01.042Z,34.30
2022-08-07T16:15:55.004Z,35.60
2022-08-07T16:18:50.782Z,44.20
2022-08-07T16:22:02.347Z,18.00
2022-08-07T16:24:35.562Z,36.20
2022-08-07T16:27:26.685Z,31.60
2022-08-07T16:30:30.743Z,39.40
2022-08-07T16:34:03.354Z,33.70
2022-08-07T16:36:03.261Z,37.30
2022-08-07T16:39:01.344Z,27.10
2022-08-07T16:41:57.291Z,28.20
2022-08-07T16:44:55.413Z,29.70
2022-08-07T16:47:51.216Z,29.60
2022-08-07T16:50:36.938Z,33.10
2022-08-07T16:54:01.213Z,25.90
2022-08-07T16:56:14.804Z,24.70
2022-08-07T16:59:10.973Z,26.40
2022-08-07T17:01:49.928Z,21.50
2022-08-07T17:07:03.473Z,29.40
2022-08-07T17:10:05.231Z,17.10
2022-08-07T17:12:44.729Z,19.90
2022-08-07T17:15:20.277Z,20.00
2022-08-07T17:17:47.914Z,23.90
2022-08-07T17:20:37.472Z,21.40
2022-08-07T17:23:32.395Z,22.90
2022-08-07T17:26:30.597Z,18.10
2022-08-07T17:28:58.613Z,18.80
2022-08-07T17:31:44.362Z,11.20
2022-08-07T17:34:36.702Z,14.90
2022-08-07T17:38:06.260Z,15.60
2022-08-07T17:40:36.556Z,12.60
2022-08-07T17:43:18.129Z,12.10
2022-08-07T17:45:56.764Z,10.40
2022-08-07T17:48:31.098Z,8.70
2022-08-07T17:51:08.448Z,13.70
2022-08-07T17:54:00.095Z,4.60
2022-08-07T17:56:31.827Z,5.50
2022-08-07T17:59:08.973Z,6.40
2022-08-07T18:01:58.537Z,6.40
2022-08-07T18:04:48.880Z,7.60
2022-08-07T18:07:24.139Z,8.50
2022-08-07T18:10:06.197Z,9.20
2022-08-07T18:12:58.571Z,7.50
2022-08-07T18:15:32.843Z,10.00
2022-08-07T18:18:45.243Z,11.30
2022-08-07T18:21:28.743Z,10.20
2022-08-07T18:24:00.972Z,9.30
2022-08-07T18:26:48.189Z,8.10
2022-08-07T18:30:07.342Z,9.70
2022-08-07T18:32:22.295Z,9.20
2022-08-07T18:35:08.176Z,11.40
2022-08-07T18:38:55.880Z,12.20
2022-08-07T18:40:50.284Z,10.40
2022-08-07T18:43:57.769Z,7.50
2022-08-07T18:46:43.122Z,7.50
2022-08-07T18:50:32.459Z,6.30
2022-08-07T18:52:55.008Z,7.80
2022-08-07T18:55:42.843Z,8.10
2022-08-07T18:58:53.562Z,9.20
2022-08-07T19:02:33.926Z,7.50
2022-08-07T19:04:19.706Z,7.80
2022-08-07T19:07:01.452Z,8.50
2022-08-07T19:09:57.454Z,7.80
2022-08-07T19:12:48.713Z,7.90
2022-08-07T19:16:05.330Z,7.20
2022-08-07T19:18:34.465Z,6.80
2022-08-07T19:21:44.113Z,5.50
2022-08-07T19:24:43.141Z,4.70
2022-08-07T19:29:02.950Z,6.50
2022-08-07T19:31:03.258Z,5.90
2022-08-07T19:32:51.845Z,6.10
2022-08-07T19:35:33.021Z,5.80
2022-08-07T19:38:03.753Z,5.80
2022-08-07T19:40:50.347Z,5.30
2022-08-07T19:43:44.104Z,5.80
2022-08-07T19:46:35.781Z,5.30
2022-08-07T19:49:05.766Z,5.50
2022-08-07T19:51:51.872Z,6.30
2022-08-07T19:54:33.902Z,6.20
2022-08-07T19:58:01.098Z,5.50
2022-08-07T20:00:08.979Z,5.40
2022-08-07T20:02:41.298Z,5.20
2022-08-07T20:05:27.802Z,5.00
2022-08-07T20:08:07.191Z,5.10
2022-08-07T20:10:55.091Z,4.70
2022-08-07T20:15:59.964Z,4.80
2022-08-07T20:18:32.217Z,5.10
2022-08-07T20:21:02.555Z,4.70
2022-08-07T20:23:40.698Z,4.50
2022-08-07T20:26:10.065Z,4.40
2022-08-07T20:28:39.191Z,3.90
2022-08-07T20:31:21.360Z,4.40
2022-08-07T20:33:56.323Z,4.20
2022-08-07T20:36:24.104Z,4.30
2022-08-07T20:39:00.850Z,4.20
2022-08-07T20:41:45.863Z,4.00
2022-08-07T20:44:15.450Z,4.10
2022-08-07T20:46:45.496Z,3.70
2022-08-07T20:49:58.480Z,3.70
2022-08-07T20:52:16.381Z,3.40
2022-08-07T20:54:53.316Z,3.30
2022-08-07T20:57:25.801Z,3.40
2022-08-07T21:00:06.869Z,3.10
2022-08-07T21:02:58.736Z,3.30
2022-08-07T21:05:57.238Z,3.10
2022-08-07T21:08:36.701Z,3.10
2022-08-07T21:11:17.218Z,2.70
2022-08-07T21:14:32.024Z,2.70
2022-08-07T21:17:06.399Z,2.60
2022-08-07T21:19:50.710Z,2.50
2022-08-07T21:22:28.303Z,2.50
2022-08-07T21:25:04.477Z,2.50
2022-08-07T21:27:55.850Z,2.70
2022-08-07T21:30:52.047Z,2.60
2022-08-07T21:33:38.341Z,2.80
2022-08-07T21:36:32.738Z,2.70
2022-08-07T21:39:45.779Z,2.60
2022-08-07T21:42:49.328Z,2.80
2022-08-07T21:46:05.123Z,2.70
2022-08-07T21:48:28.514Z,2.70
2022-08-07T21:51:07.710Z,2.70
2022-08-07T21:53:52.824Z,2.30
2022-08-07T21:56:47.957Z,2.50
2022-08-07T22:00:05.099Z,2.60
2022-08-07T22:02:34.827Z,2.70
2022-08-07T22:05:03.186Z,2.50
2022-08-07T22:07:58.356Z,2.60
2022-08-07T22:10:24.528Z,2.50
2022-08-07T22:13:00.027Z,2.50
2022-08-07T22:19:01.214Z,2.20
2022-08-07T22:22:02.042Z,2.70
2022-08-07T22:24:32.653Z,2.70
2022-08-07T22:28:02.979Z,2.90
2022-08-07T22:30:19.890Z,2.90
2022-08-07T22:32:47.584Z,2.90
2022-08-07T22:35:18.063Z,2.70
2022-08-07T22:38:08.129Z,3.00
2022-08-07T22:41:29.108Z,2.50
2022-08-07T22:44:13.002Z,3.10
2022-08-07T22:47:08.697Z,3.40
2022-08-07T22:50:20.517Z,2.90
2022-08-07T22:52:59.242Z,2.80
2022-08-07T22:55:51.430Z,3.40
2022-08-07T22:58:18.742Z,3.40
2022-08-07T23:01:06.321Z,3.70
2022-08-07T23:04:10.095Z,3.00
2022-08-07T23:07:40.326Z,3.50
2022-08-07T23:10:38.451Z,3.60
2022-08-07T23:13:48.427Z,3.50
2022-08-07T23:16:55.829Z,3.60
2022-08-07T23:20:03.856Z,3.00
2022-08-07T23:22:40.437Z,3.50
2022-08-07T23:25:30.307Z,3.70
2022-08-07T23:28:22.046Z,3.70
2022-08-07T23:31:18.582Z,4.00
2022-08-07T23:34:38.296Z,3.50
2022-08-07T23:37:18.627Z,4.00
2022-08-07T23:40:27.939Z,3.60
2022-08-07T23:43:16.485Z,4.10
2022-08-07T23:46:10.923Z,3.40
2022-08-07T23:48:41.260Z,4.00
2022-08-07T23:52:59.824Z,3.30
2022-08-07T23:54:36.477Z,3.60
2022-08-07T23:57:22.320Z,3.60
